Time;durP1;ratioP1;P1;durP2;ratioP2;P2;SDS_P1;SDS_P2;PMS_P1;PMS_P2;Temp;Humidity;BMP_temperature;BMP_pressure;BME280_temperature;BME280_humidity;BME280_pressure;Samples;Min_cycle;Max_cycle;Signal;HPM_P1;HPM_P2
2023/10/21 00:00:32;;;;;;;12.27;3.55;;;13.80;99.90;;;;;;5073707;28;20017;-51
2023/10/21 00:02:58;;;;;;;8.82;2.88;;;13.80;99.90;;;;;;5073933;28;20028;-52
2023/10/21 00:05:25;;;;;;;6.00;3.20;;;13.80;99.90;;;;;;5072192;28;20020;-51
2023/10/21 00:07:51;;;;;;;11.30;3.13;;;13.80;99.90;;;;;;5073597;28;20120;-50
2023/10/21 00:10:17;;;;;;;8.57;3.40;;;13.70;99.90;;;;;;5073753;28;20052;-49
2023/10/21 00:12:44;;;;;;;7.95;3.20;;;13.70;99.90;;;;;;5060439;28;20433;-46
2023/10/21 00:15:10;;;;;;;3.60;2.78;;;13.70;99.90;;;;;;5070595;28;20051;-49
2023/10/21 00:17:36;;;;;;;12.07;3.25;;;13.70;99.90;;;;;;5064777;28;20566;-49
2023/10/21 00:20:09;;;;;;;7.20;3.15;;;13.60;99.90;;;;;;5073520;28;20054;-45
2023/10/21 00:22:38;;;;;;;11.13;2.92;;;13.60;99.90;;;;;;5068969;28;20063;-48
2023/10/21 00:25:04;;;;;;;9.02;3.17;;;13.60;99.90;;;;;;5070511;28;20056;-51
2023/10/21 00:27:30;;;;;;;10.25;3.20;;;13.60;99.90;;;;;;5068841;28;20425;-51
2023/10/21 00:29:56;;;;;;;5.65;2.70;;;13.60;99.90;;;;;;5073391;28;20046;-49
2023/10/21 00:32:21;;;;;;;7.65;3.20;;;13.60;99.90;;;;;;5073541;28;20121;-50
2023/10/21 00:34:47;;;;;;;5.15;2.75;;;13.60;99.90;;;;;;5073285;28;20499;-51
2023/10/21 00:37:13;;;;;;;11.32;3.38;;;13.60;99.90;;;;;;5073544;28;20029;-50
2023/10/21 00:39:39;;;;;;;8.40;3.25;;;13.60;99.90;;;;;;5073444;28;20044;-52
2023/10/21 00:42:05;;;;;;;8.80;3.10;;;13.60;99.90;;;;;;5093605;28;20028;-50
2023/10/21 00:44:31;;;;;;;9.95;3.08;;;13.60;99.90;;;;;;5093268;28;20047;-50
2023/10/21 00:47:00;;;;;;;3.92;2.83;;;13.60;99.90;;;;;;5087780;28;20544;-51
2023/10/21 00:49:30;;;;;;;4.65;2.90;;;13.60;99.90;;;;;;5073332;28;20037;-48
2023/10/21 00:51:56;;;;;;;5.53;2.85;;;13.60;99.90;;;;;;5073069;28;20074;-49
2023/10/21 00:54:24;;;;;;;9.32;4.88;;;13.50;99.90;;;;;;5073263;28;20067;-52
2023/10/21 00:56:50;;;;;;;6.53;2.85;;;13.50;99.90;;;;;;5073249;28;20509;-51
2023/10/21 00:59:16;;;;;;;5.22;2.80;;;13.50;99.90;;;;;;5073075;28;20032;-47
2023/10/21 01:01:43;;;;;;;8.68;3.17;;;13.50;99.90;;;;;;5073169;28;20058;-46
2023/10/21 01:04:10;;;;;;;6.78;3.15;;;13.50;99.90;;;;;;5072561;28;20032;-48
2023/10/21 01:06:36;;;;;;;5.25;2.90;;;13.50;99.90;;;;;;5071569;28;20051;-49
2023/10/21 01:09:01;;;;;;;5.22;2.70;;;13.50;99.90;;;;;;5072563;28;20017;-51
2023/10/21 01:11:27;;;;;;;6.78;2.75;;;13.50;99.90;;;;;;5072986;28;20543;-51
2023/10/21 01:13:54;;;;;;;4.95;3.05;;;13.50;99.90;;;;;;5072569;28;20024;-48
2023/10/21 01:16:20;;;;;;;4.13;3.40;;;13.50;99.90;;;;;;5073236;28;20108;-51
2023/10/21 01:18:45;;;;;;;11.48;2.50;;;13.50;99.90;;;;;;5073000;28;20555;-49
2023/10/21 01:21:11;;;;;;;9.95;3.33;;;13.50;99.90;;;;;;5072738;28;20138;-46
2023/10/21 01:23:37;;;;;;;4.35;3.20;;;13.50;99.90;;;;;;5072834;28;20469;-49
2023/10/21 01:26:04;;;;;;;7.70;3.25;;;13.60;99.90;;;;;;5072747;28;20024;-50
2023/10/21 01:28:30;;;;;;;8.23;3.03;;;13.50;99.90;;;;;;5072822;28;20039;-49
2023/10/21 01:30:56;;;;;;;12.02;4.45;;;13.50;99.90;;;;;;5072627;28;20274;-49
2023/10/21 01:33:22;;;;;;;7.20;3.28;;;13.50;99.90;;;;;;5072943;28;20473;-47
2023/10/21 01:35:48;;;;;;;9.10;3.78;;;13.50;99.90;;;;;;5059771;28;20070;-46
2023/10/21 01:38:17;;;;;;;7.93;2.78;;;13.50;99.90;;;;;;5072573;28;20091;-46
2023/10/21 01:40:44;;;;;;;3.78;3.03;;;13.50;99.90;;;;;;5072929;28;20088;-48
2023/10/21 01:43:10;;;;;;;7.65;3.20;;;13.50;99.90;;;;;;5072494;28;20086;-48
2023/10/21 01:45:36;;;;;;;8.20;3.67;;;13.60;99.90;;;;;;5072537;28;20036;-50
2023/10/21 01:48:02;;;;;;;5.07;3.40;;;13.60;99.90;;;;;;5054752;28;20028;-47
2023/10/21 01:50:28;;;;;;;4.78;3.35;;;13.50;99.90;;;;;;5072608;28;20073;-53
2023/10/21 01:52:55;;;;;;;6.90;2.75;;;13.40;99.90;;;;;;5072515;28;20028;-53
2023/10/21 01:55:20;;;;;;;4.78;2.95;;;13.50;99.90;;;;;;5063974;28;20021;-48
2023/10/21 01:57:46;;;;;;;13.30;2.63;;;13.40;99.90;;;;;;5072067;28;20547;-48
2023/10/21 02:00:18;;;;;;;12.80;3.38;;;13.40;99.90;;;;;;5054396;28;20075;-49
2023/10/21 02:02:54;;;;;;;4.78;2.90;;;13.40;99.90;;;;;;5072534;28;20051;-51
2023/10/21 02:05:21;;;;;;;7.47;3.30;;;13.30;99.90;;;;;;5072518;28;20023;-48
2023/10/21 02:07:47;;;;;;;10.17;3.37;;;13.30;99.90;;;;;;5072727;28;20147;-50
2023/10/21 02:10:13;;;;;;;5.95;3.30;;;13.30;99.90;;;;;;5072327;28;20492;-48
2023/10/21 02:12:39;;;;;;;8.93;3.45;;;13.30;99.90;;;;;;5072168;28;20021;-51
2023/10/21 02:15:11;;;;;;;6.00;2.90;;;13.30;99.90;;;;;;5072480;28;20071;-52
2023/10/21 02:17:38;;;;;;;7.80;3.25;;;13.30;99.90;;;;;;5074428;28;20024;-50
2023/10/21 02:20:05;;;;;;;9.23;3.03;;;13.30;99.90;;;;;;5076143;28;20039;-48
2023/10/21 02:22:30;;;;;;;3.05;2.72;;;13.30;99.90;;;;;;5076096;28;20102;-49
2023/10/21 02:24:56;;;;;;;9.70;3.95;;;13.20;99.90;;;;;;5058070;28;20071;-50
2023/10/21 02:27:22;;;;;;;6.10;3.47;;;13.30;99.90;;;;;;5076155;28;20546;-47
2023/10/21 02:29:49;;;;;;;8.68;2.70;;;13.30;99.90;;;;;;5075690;28;20493;-51
2023/10/21 02:32:15;;;;;;;4.18;2.67;;;13.30;99.90;;;;;;5075734;28;20473;-50
2023/10/21 02:34:41;;;;;;;3.80;2.28;;;13.30;99.90;;;;;;5083818;28;20100;-52
2023/10/21 02:37:07;;;;;;;6.05;3.03;;;13.30;99.90;;;;;;5075814;28;20021;-47
2023/10/21 02:39:32;;;;;;;8.27;2.92;;;13.30;99.90;;;;;;5076077;28;20082;-46
2023/10/21 02:41:58;;;;;;;4.90;2.42;;;13.30;99.90;;;;;;5075662;28;20036;-49
2023/10/21 02:44:24;;;;;;;4.78;2.67;;;13.30;99.90;;;;;;5075479;28;20094;-50
2023/10/21 02:46:49;;;;;;;8.93;2.78;;;13.20;99.90;;;;;;5075511;28;20093;-49
2023/10/21 02:49:15;;;;;;;2.90;2.33;;;13.30;99.90;;;;;;5075616;28;20077;-46
2023/10/21 02:51:41;;;;;;;4.50;2.28;;;13.30;99.90;;;;;;5075445;28;20032;-49
2023/10/21 02:54:07;;;;;;;2.55;2.20;;;13.30;99.90;;;;;;5075544;28;20473;-49
2023/10/21 02:56:33;;;;;;;3.63;2.13;;;13.30;99.90;;;;;;5075762;28;20374;-50
2023/10/21 02:58:59;;;;;;;8.75;3.28;;;13.30;99.90;;;;;;5075166;28;20012;-48
2023/10/21 03:01:25;;;;;;;4.90;2.28;;;13.30;99.90;;;;;;5075132;28;20035;-47
2023/10/21 03:03:52;;;;;;;6.30;2.17;;;13.30;99.90;;;;;;5075651;28;20027;-46
2023/10/21 03:06:21;;;;;;;4.70;2.22;;;13.30;99.90;;;;;;5075724;28;20040;-50
2023/10/21 03:08:47;;;;;;;2.83;2.58;;;13.30;99.90;;;;;;5075438;28;20035;-48
2023/10/21 03:11:12;;;;;;;4.50;2.30;;;13.30;99.90;;;;;;5057293;28;20024;-48
2023/10/21 03:13:38;;;;;;;3.67;2.53;;;13.30;99.90;;;;;;5075110;28;20473;-49
2023/10/21 03:16:11;;;;;;;2.97;2.28;;;13.20;99.90;;;;;;5074842;28;20024;-48
2023/10/21 03:18:38;;;;;;;7.72;2.85;;;13.20;99.90;;;;;;5075098;28;20029;-51
2023/10/21 03:21:04;;;;;;;8.68;2.70;;;13.20;99.90;;;;;;5075025;28;20109;-49
2023/10/21 03:23:31;;;;;;;3.90;2.50;;;13.20;99.90;;;;;;5056724;28;20024;-49
2023/10/21 03:26:04;;;;;;;12.52;2.60;;;13.30;99.90;;;;;;5067504;28;20029;-48
2023/10/21 03:28:30;;;;;;;12.07;3.13;;;13.30;99.90;;;;;;5054513;28;20025;-47
2023/10/21 03:30:56;;;;;;;6.18;2.85;;;13.30;99.90;;;;;;5069849;28;20077;-49
2023/10/21 03:33:24;;;;;;;4.97;2.17;;;13.40;99.90;;;;;;5075018;28;20076;-50
2023/10/21 03:35:52;;;;;;;5.35;2.50;;;13.40;99.90;;;;;;5074766;28;20064;-51
2023/10/21 03:38:18;;;;;;;6.78;2.42;;;13.40;99.90;;;;;;5074617;28;20142;-51
2023/10/21 03:40:44;;;;;;;5.78;2.55;;;13.40;99.90;;;;;;5074696;28;20032;-47
2023/10/21 03:43:11;;;;;;;2.92;2.45;;;13.40;99.90;;;;;;5074524;28;20035;-45
2023/10/21 03:45:36;;;;;;;6.18;2.42;;;13.40;99.90;;;;;;5074631;28;20106;-49
2023/10/21 03:48:03;;;;;;;7.68;2.50;;;13.30;99.90;;;;;;5074839;28;20485;-51
2023/10/21 03:50:29;;;;;;;5.28;2.55;;;13.30;99.90;;;;;;5074493;28;20099;-49
2023/10/21 03:52:55;;;;;;;4.13;2.58;;;13.30;99.90;;;;;;5056070;28;20485;-43
2023/10/21 03:55:21;;;;;;;2.60;2.40;;;13.30;99.90;;;;;;5074616;28;20027;-50
2023/10/21 03:57:49;;;;;;;10.00;2.97;;;13.30;99.90;;;;;;5074571;28;20380;-46
2023/10/21 04:00:15;;;;;;;8.65;2.55;;;13.40;99.90;;;;;;5074026;28;20031;-48
2023/10/21 04:02:40;;;;;;;5.35;2.47;;;13.40;99.90;;;;;;5074883;28;20020;-44
2023/10/21 04:05:08;;;;;;;5.03;3.10;;;13.40;99.90;;;;;;5074191;28;20039;-51
2023/10/21 04:07:34;;;;;;;5.82;2.33;;;13.40;99.90;;;;;;5056619;28;20021;-50
2023/10/21 04:10:00;;;;;;;6.97;2.30;;;13.30;99.90;;;;;;5074256;28;20025;-50
2023/10/21 04:12:26;;;;;;;5.60;2.42;;;13.30;99.90;;;;;;5073954;28;20067;-47
2023/10/21 04:14:51;;;;;;;6.65;2.42;;;13.20;99.90;;;;;;5074144;28;20477;-44
2023/10/21 04:17:18;;;;;;;6.28;2.75;;;13.20;99.90;;;;;;5055869;28;20055;-51
2023/10/21 04:19:44;;;;;;;4.05;2.75;;;13.20;99.90;;;;;;5073787;28;20095;-44
2023/10/21 04:22:09;;;;;;;9.75;3.33;;;13.20;99.90;;;;;;5073782;28;20100;-50
2023/10/21 04:24:35;;;;;;;6.22;2.90;;;13.30;99.90;;;;;;5074021;28;20097;-45
2023/10/21 04:27:01;;;;;;;6.18;2.75;;;13.30;99.90;;;;;;5073939;28;20013;-51
2023/10/21 04:29:32;;;;;;;5.32;2.42;;;13.30;99.90;;;;;;5073684;28;20076;-52
2023/10/21 04:31:58;;;;;;;4.95;2.90;;;13.30;99.90;;;;;;5072935;28;20086;-48
2023/10/21 04:34:25;;;;;;;5.22;3.30;;;13.40;99.90;;;;;;5073751;28;20489;-50
2023/10/21 04:36:50;;;;;;;6.75;3.33;;;13.40;99.90;;;;;;5073489;28;20073;-50
2023/10/21 04:39:16;;;;;;;5.07;2.40;;;13.40;99.90;;;;;;5072888;28;20444;-49
2023/10/21 04:41:42;;;;;;;4.05;2.30;;;13.40;99.90;;;;;;5073112;28;20108;-51
2023/10/21 04:44:09;;;;;;;3.63;2.63;;;13.30;99.90;;;;;;5073119;28;20116;-48
2023/10/21 04:46:35;;;;;;;4.50;2.67;;;13.40;99.90;;;;;;5072953;28;20028;-51
2023/10/21 04:49:01;;;;;;;5.30;2.47;;;13.40;99.90;;;;;;5055387;28;20029;-45
2023/10/21 04:51:26;;;;;;;3.30;2.95;;;13.30;99.90;;;;;;5073517;28;20378;-50
2023/10/21 04:53:52;;;;;;;8.48;2.50;;;13.30;99.90;;;;;;5072976;28;20492;-50
2023/10/21 04:56:18;;;;;;;8.77;2.47;;;13.30;99.90;;;;;;5073112;28;20052;-48
2023/10/21 04:58:43;;;;;;;6.05;2.22;;;13.40;99.90;;;;;;5073201;28;20056;-50
2023/10/21 05:01:10;;;;;;;19.33;3.25;;;13.40;99.90;;;;;;5073210;28;20370;-51
2023/10/21 05:03:36;;;;;;;5.43;2.83;;;13.50;99.90;;;;;;5073112;28;20055;-51
2023/10/21 05:06:04;;;;;;;7.30;3.20;;;13.50;99.90;;;;;;5072964;28;20035;-50
2023/10/21 05:08:31;;;;;;;7.40;2.83;;;13.50;99.90;;;;;;5073182;28;20033;-50
2023/10/21 05:10:56;;;;;;;4.07;3.08;;;13.50;99.90;;;;;;5072976;28;20044;-51
2023/10/21 05:13:23;;;;;;;7.53;3.40;;;13.50;99.90;;;;;;5054861;28;20575;-51
2023/10/21 05:15:50;;;;;;;4.22;2.70;;;13.50;99.90;;;;;;5072897;28;20032;-50
2023/10/21 05:18:16;;;;;;;5.30;2.50;;;13.50;99.90;;;;;;5072833;28;20036;-51
2023/10/21 05:20:42;;;;;;;7.03;2.40;;;13.50;99.90;;;;;;5073031;28;20013;-49
2023/10/21 05:23:08;;;;;;;13.93;3.17;;;13.60;99.90;;;;;;5054942;28;20476;-52
2023/10/21 05:25:34;;;;;;;5.05;2.80;;;13.60;99.90;;;;;;5072604;28;20032;-49
2023/10/21 05:27:59;;;;;;;8.27;3.00;;;13.50;99.90;;;;;;5073073;28;20028;-52
2023/10/21 05:30:25;;;;;;;8.50;2.50;;;13.60;99.90;;;;;;5072680;28;20504;-47
2023/10/21 05:32:51;;;;;;;11.30;3.33;;;13.60;99.90;;;;;;5072517;28;20477;-48
2023/10/21 05:35:16;;;;;;;8.68;3.20;;;13.60;99.90;;;;;;5072661;28;20499;-48
2023/10/21 05:37:42;;;;;;;5.75;2.80;;;13.60;99.90;;;;;;5072783;28;20591;-47
2023/10/21 05:40:09;;;;;;;9.77;3.03;;;13.60;99.90;;;;;;5072598;28;20017;-49
2023/10/21 05:42:34;;;;;;;5.20;2.78;;;13.60;99.90;;;;;;5072933;28;20028;-49
2023/10/21 05:45:00;;;;;;;3.75;2.45;;;13.60;99.90;;;;;;5071930;28;20551;-50
2023/10/21 05:47:26;;;;;;;5.78;2.55;;;13.60;99.90;;;;;;5072409;28;20029;-47
2023/10/21 05:49:53;;;;;;;11.75;3.03;;;13.60;99.90;;;;;;5072766;28;20028;-51
2023/10/21 05:52:18;;;;;;;7.20;2.58;;;13.60;99.90;;;;;;5075694;28;20029;-51
2023/10/21 05:54:44;;;;;;;6.15;2.88;;;13.70;99.90;;;;;;5076712;28;20393;-51
2023/10/21 05:57:10;;;;;;;9.82;2.40;;;13.70;99.90;;;;;;5076639;28;20480;-50
2023/10/21 05:59:35;;;;;;;7.82;2.80;;;13.70;99.90;;;;;;5076486;28;20537;-50
2023/10/21 06:02:01;;;;;;;6.57;2.45;;;13.70;99.90;;;;;;5076523;28;20052;-50
2023/10/21 06:04:31;;;;;;;7.53;2.85;;;13.70;99.90;;;;;;5076706;28;20473;-50
2023/10/21 06:06:57;;;;;;;7.10;2.83;;;13.70;99.90;;;;;;5076695;28;20374;-51
2023/10/21 06:09:26;;;;;;;9.55;2.50;;;13.70;99.90;;;;;;5076231;28;20150;-49
2023/10/21 06:11:52;;;;;;;5.13;3.05;;;13.60;99.90;;;;;;5057582;28;20024;-52
2023/10/21 06:14:18;;;;;;;8.50;3.03;;;13.70;99.90;;;;;;5076540;28;20468;-52
2023/10/21 06:16:45;;;;;;;3.53;2.10;;;13.70;99.90;;;;;;5075927;28;20023;-48
2023/10/21 06:19:10;;;;;;;10.52;2.50;;;13.70;99.90;;;;;;5076196;28;20016;-50
2023/10/21 06:21:37;;;;;;;8.57;2.70;;;13.70;99.90;;;;;;5076248;28;20667;-50
2023/10/21 06:24:06;;;;;;;13.80;3.58;;;13.70;99.90;;;;;;5076225;28;20025;-51
2023/10/21 06:26:32;;;;;;;14.55;2.55;;;13.80;99.90;;;;;;5075936;28;20477;-51
2023/10/21 06:28:58;;;;;;;8.30;2.88;;;13.70;99.90;;;;;;5076033;28;20032;-50
2023/10/21 06:31:24;;;;;;;4.50;3.00;;;13.70;99.90;;;;;;5075664;28;20527;-52
2023/10/21 06:33:50;;;;;;;6.32;2.40;;;13.70;99.90;;;;;;5075742;28;20032;-51
2023/10/21 06:36:16;;;;;;;5.10;2.47;;;13.70;99.90;;;;;;5076175;28;20075;-51
2023/10/21 06:38:42;;;;;;;5.85;2.40;;;13.80;99.90;;;;;;5075674;28;20496;-50
2023/10/21 06:41:10;;;;;;;5.40;2.70;;;13.80;99.90;;;;;;5075815;28;20078;-51
2023/10/21 06:43:36;;;;;;;;;;;13.90;99.90;;;;;;5076427;28;20115;-51
2023/10/21 06:46:02;;;;;;;6.03;2.45;;;13.80;99.90;;;;;;5075805;28;20400;-47
2023/10/21 06:48:29;;;;;;;4.00;2.17;;;13.80;99.90;;;;;;5072645;28;20059;-50
2023/10/21 06:50:55;;;;;;;5.10;2.25;;;13.80;99.90;;;;;;5075467;28;20032;-51
2023/10/21 06:53:21;;;;;;;12.73;3.55;;;13.80;99.90;;;;;;5074971;28;20516;-52
2023/10/21 06:55:48;;;;;;;5.88;2.47;;;13.70;99.90;;;;;;5075756;28;20138;-49
2023/10/21 06:58:14;;;;;;;4.00;2.17;;;13.80;99.90;;;;;;5074862;28;20421;-51
2023/10/21 07:00:40;;;;;;;4.93;2.30;;;13.80;99.90;;;;;;5075017;28;20023;-47
2023/10/21 07:03:06;;;;;;;8.05;2.72;;;13.80;99.90;;;;;;5073597;28;20020;-51
2023/10/21 07:05:32;;;;;;;4.72;2.40;;;13.80;99.90;;;;;;5074873;28;20020;-52
2023/10/21 07:07:58;;;;;;;2.55;1.90;;;13.80;99.90;;;;;;5074767;28;20035;-50
2023/10/21 07:10:23;;;;;;;5.43;2.25;;;13.80;99.90;;;;;;5075155;28;20039;-49
2023/10/21 07:12:51;;;;;;;5.68;2.72;;;13.80;99.90;;;;;;5074925;28;20029;-50
2023/10/21 07:15:17;;;;;;;7.75;2.90;;;13.90;99.90;;;;;;5075086;28;20032;-51
2023/10/21 07:17:43;;;;;;;6.80;2.17;;;13.80;99.90;;;;;;5074468;28;20082;-52
2023/10/21 07:20:09;;;;;;;4.53;2.20;;;13.90;99.90;;;;;;5074846;28;20048;-51
2023/10/21 07:22:36;;;;;;;4.75;2.33;;;13.90;99.90;;;;;;5074995;28;20111;-50
2023/10/21 07:25:01;;;;;;;3.03;2.50;;;14.00;99.90;;;;;;5057001;28;20021;-52
2023/10/21 07:27:27;;;;;;;6.22;2.13;;;14.00;99.90;;;;;;5074876;28;20035;-50
2023/10/21 07:29:55;;;;;;;6.72;3.00;;;13.90;99.90;;;;;;5062816;28;20079;-52
2023/10/21 07:32:21;;;;;;;4.15;2.30;;;14.00;99.90;;;;;;5074191;28;20026;-51
2023/10/21 07:34:47;;;;;;;6.45;2.38;;;14.10;99.90;;;;;;5074375;28;20487;-50
2023/10/21 07:37:13;;;;;;;5.68;2.30;;;14.00;99.90;;;;;;5074463;28;20052;-51
2023/10/21 07:39:39;;;;;;;10.50;2.20;;;14.10;99.90;;;;;;5074275;28;20063;-53
2023/10/21 07:42:05;;;;;;;3.80;1.77;;;14.00;99.90;;;;;;5074626;28;20489;-52
2023/10/21 07:44:30;;;;;;;6.40;2.20;;;14.00;99.90;;;;;;5056514;28;20493;-49
2023/10/21 07:46:56;;;;;;;4.45;1.80;;;14.00;99.90;;;;;;5074327;28;20017;-50
2023/10/21 07:49:23;;;;;;;5.07;2.13;;;14.00;99.90;;;;;;5055912;28;20009;-48
2023/10/21 07:51:49;;;;;;;4.50;2.00;;;14.00;99.90;;;;;;5073992;28;20461;-46
2023/10/21 07:54:15;;;;;;;4.35;1.83;;;13.90;99.90;;;;;;5073926;28;20028;-46
2023/10/21 07:56:45;;;;;;;3.08;1.95;;;13.80;99.90;;;;;;5074042;28;20082;-43
2023/10/21 07:59:11;;;;;;;2.85;1.73;;;13.80;99.90;;;;;;5036114;28;20050;-46
2023/10/21 08:01:37;;;;;;;5.93;1.77;;;13.80;99.90;;;;;;5054246;28;20025;-48
2023/10/21 08:04:03;;;;;;;3.20;1.90;;;13.80;99.90;;;;;;5073895;28;20566;-50
2023/10/21 08:06:29;;;;;;;3.53;1.60;;;13.80;99.90;;;;;;5056012;28;20028;-49
2023/10/21 08:08:55;;;;;;;3.50;1.70;;;13.90;99.90;;;;;;5073111;28;20489;-49
2023/10/21 08:11:21;;;;;;;4.25;1.80;;;13.90;99.90;;;;;;5073835;28;20032;-49
2023/10/21 08:13:47;;;;;;;1.67;1.58;;;13.90;99.90;;;;;;5073549;28;20032;-51
2023/10/21 08:16:13;;;;;;;4.38;1.35;;;13.90;99.90;;;;;;5073495;28;20021;-48
2023/10/21 08:18:40;;;;;;;5.30;1.42;;;13.90;99.90;;;;;;5073639;28;20021;-51
2023/10/21 08:21:05;;;;;;;2.58;1.65;;;13.80;99.90;;;;;;5073753;28;20048;-53
2023/10/21 08:23:31;;;;;;;5.50;1.67;;;13.80;99.90;;;;;;5074034;28;20052;-52
2023/10/21 08:25:57;;;;;;;3.92;1.70;;;13.80;99.90;;;;;;5073503;28;20021;-48
2023/10/21 08:28:24;;;;;;;4.63;1.50;;;13.80;99.90;;;;;;5073362;28;20067;-48
2023/10/21 08:30:50;;;;;;;2.63;1.58;;;13.80;99.90;;;;;;5073324;28;20020;-50
2023/10/21 08:33:16;;;;;;;5.47;1.67;;;13.70;99.90;;;;;;5073419;28;20055;-53
2023/10/21 08:35:43;;;;;;;5.07;1.58;;;13.70;99.90;;;;;;5073402;28;20028;-54
2023/10/21 08:38:08;;;;;;;3.40;1.20;;;13.70;99.90;;;;;;5073529;28;20047;-51
2023/10/21 08:40:41;;;;;;;1.80;1.65;;;13.70;99.90;;;;;;5073463;28;20052;-52
2023/10/21 08:43:08;;;;;;;1.42;0.90;;;13.70;99.90;;;;;;5073545;28;20071;-51
2023/10/21 08:45:35;;;;;;;0.93;0.80;;;13.70;99.90;;;;;;5073269;28;20040;-51
2023/10/21 08:48:03;;;;;;;2.17;1.25;;;13.70;99.90;;;;;;5073140;28;20029;-47
2023/10/21 08:50:29;;;;;;;;;;;13.80;99.90;;;;;;5054936;28;20737;-46
2023/10/21 08:52:57;;;;;;;1.30;1.20;;;13.90;99.90;;;;;;5072647;28;20349;-48
2023/10/21 08:55:23;;;;;;;;;;;13.90;99.90;;;;;;5054329;28;20017;-46
2023/10/21 08:57:50;;;;;;;2.00;0.82;;;14.10;99.90;;;;;;5072969;28;19912;-52
2023/10/21 09:00:17;;;;;;;2.38;0.90;;;14.10;99.90;;;;;;5072764;28;20059;-50
2023/10/21 09:02:43;;;;;;;2.85;1.13;;;14.00;99.90;;;;;;5067296;28;20023;-52
2023/10/21 09:05:12;;;;;;;0.80;0.80;;;14.00;99.90;;;;;;5068553;28;20550;-49
2023/10/21 09:07:49;;;;;;;0.73;0.73;;;13.90;99.90;;;;;;5073193;28;20063;-49
2023/10/21 09:10:15;;;;;;;3.50;0.70;;;14.00;99.90;;;;;;5073294;28;20024;-50
2023/10/21 09:12:41;;;;;;;4.35;1.00;;;14.00;99.90;;;;;;5072889;28;20020;-52
2023/10/21 09:15:09;;;;;;;1.52;0.60;;;14.00;99.90;;;;;;5080022;28;20020;-52
2023/10/21 09:17:38;;;;;;;1.45;0.65;;;13.90;99.90;;;;;;5071495;28;20074;-52
2023/10/21 09:20:09;;;;;;;1.15;0.40;;;13.90;99.90;;;;;;5072867;28;20044;-50
2023/10/21 09:22:36;;;;;;;0.98;0.60;;;13.90;99.90;;;;;;5072555;28;20101;-52
2023/10/21 09:25:15;;;;;;;4.50;0.45;;;13.90;99.90;;;;;;5053519;28;20025;-49
2023/10/21 09:27:41;;;;;;;1.23;0.60;;;13.90;99.90;;;;;;5072787;28;20036;-48
2023/10/21 09:30:13;;;;;;;1.98;0.68;;;13.80;99.90;;;;;;5072736;28;20099;-49
2023/10/21 09:32:39;;;;;;;0.90;0.38;;;13.80;99.90;;;;;;5073047;28;20025;-52
2023/10/21 09:35:17;;;;;;;0.52;0.40;;;13.80;99.90;;;;;;5072652;28;20103;-51
2023/10/21 09:37:43;;;;;;;1.95;1.13;;;13.80;99.90;;;;;;5072860;28;20024;-50
2023/10/21 09:40:09;;;;;;;2.17;0.98;;;13.80;99.90;;;;;;5072952;28;20021;-51
2023/10/21 09:42:42;;;;;;;7.88;0.63;;;13.90;99.90;;;;;;5072790;28;20032;-49
2023/10/21 09:45:13;;;;;;;0.50;0.30;;;13.90;99.90;;;;;;5052484;28;20510;-48
2023/10/21 09:47:40;;;;;;;6.78;0.75;;;14.00;99.90;;;;;;5052912;28;20363;-51
2023/10/21 09:50:12;;;;;;;3.00;0.70;;;14.00;99.90;;;;;;5052617;28;20084;-50
2023/10/21 09:52:44;;;;;;;1.15;0.77;;;14.00;99.90;;;;;;5072325;28;20389;-50
2023/10/21 09:55:11;;;;;;;8.57;0.30;;;14.10;99.90;;;;;;5072456;28;20099;-48
2023/10/21 09:57:37;;;;;;;0.55;0.47;;;14.10;99.90;;;;;;5065218;28;20028;-46
2023/10/21 10:00:07;;;;;;;8.25;1.00;;;14.10;99.90;;;;;;5052509;28;20538;-49
2023/10/21 10:02:36;;;;;;;0.43;0.40;;;14.10;99.90;;;;;;5052497;28;20490;-46
2023/10/21 10:05:08;;;;;;;1.20;0.30;;;14.00;99.90;;;;;;5052879;28;20500;-48
2023/10/21 10:07:35;;;;;;;0.40;0.40;;;14.10;99.90;;;;;;5072313;28;20025;-48
2023/10/21 10:10:04;;;;;;;1.75;0.60;;;14.20;99.90;;;;;;5072407;28;20029;-50
2023/10/21 10:12:46;;;;;;;1.02;0.28;;;14.30;99.90;;;;;;5072200;28;20488;-50
2023/10/21 10:15:39;;;;;;;2.17;0.63;;;14.40;99.90;;;;;;5072354;28;20024;-51
2023/10/21 10:18:13;;;;;;;1.95;0.85;;;14.40;99.90;;;;;;5050517;28;20025;-52
2023/10/21 10:20:45;;;;;;;2.83;0.52;;;14.40;99.90;;;;;;5072317;28;20017;-50
2023/10/21 10:23:12;;;;;;;1.63;0.60;;;14.40;99.90;;;;;;5072509;28;20028;-48
2023/10/21 10:25:39;;;;;;;4.90;0.70;;;14.50;99.90;;;;;;5071955;28;20074;-49
2023/10/21 10:28:08;;;;;;;5.40;0.88;;;14.60;99.90;;;;;;5072471;28;20029;-44
2023/10/21 10:30:35;;;;;;;5.57;2.00;;;14.60;99.90;;;;;;5072273;28;20024;-49
2023/10/21 10:33:12;;;;;;;0.80;0.60;;;14.60;99.90;;;;;;5072029;28;20108;-49
2023/10/21 10:35:47;;;;;;;7.70;0.70;;;14.60;99.90;;;;;;5054195;28;20112;-48
2023/10/21 10:38:20;;;;;;;4.88;0.95;;;14.70;99.90;;;;;;5073167;28;20036;-50
2023/10/21 10:40:46;;;;;;;4.22;0.50;;;14.80;99.90;;;;;;5075465;28;20107;-48
2023/10/21 10:43:12;;;;;;;3.72;0.73;;;14.80;99.90;;;;;;5075853;28;20095;-49
2023/10/21 10:45:39;;;;;;;1.23;0.50;;;14.70;99.90;;;;;;5054058;28;20403;-50
2023/10/21 10:48:07;;;;;;;1.42;0.63;;;14.70;99.90;;;;;;5056021;28;20071;-51
2023/10/21 10:50:37;;;;;;;3.90;0.70;;;14.70;99.90;;;;;;5055806;28;20424;-51
2023/10/21 10:53:17;;;;;;;6.40;0.70;;;14.80;99.90;;;;;;5054315;28;20066;-48
2023/10/21 10:55:47;;;;;;;1.70;1.10;;;14.90;99.90;;;;;;5055505;28;20047;-51
2023/10/21 10:58:13;;;;;;;4.05;0.60;;;14.90;99.90;;;;;;5048283;28;20026;-50
2023/10/21 11:00:41;;;;;;;0.35;0.30;;;15.00;99.90;;;;;;5055294;28;20032;-51
2023/10/21 11:03:08;;;;;;;1.30;0.65;;;15.00;99.90;;;;;;5055523;28;20559;-48
2023/10/21 11:05:37;;;;;;;1.55;0.60;;;15.10;99.90;;;;;;5055465;28;20020;-52
2023/10/21 11:08:05;;;;;;;2.83;0.60;;;15.10;99.90;;;;;;5055332;28;20118;-49
2023/10/21 11:10:31;;;;;;;0.80;0.55;;;15.10;99.90;;;;;;5055417;28;20054;-51
2023/10/21 11:12:56;;;;;;;5.70;1.33;;;15.20;99.90;;;;;;5054821;28;20482;-56
2023/10/21 11:15:23;;;;;;;1.20;0.43;;;15.30;99.90;;;;;;5053414;28;20021;-45
2023/10/21 11:17:51;;;;;;;1.40;0.50;;;15.40;99.90;;;;;;5055427;28;20051;-52
2023/10/21 11:20:18;;;;;;;1.67;0.90;;;15.40;99.90;;;;;;5055149;28;20029;-52
2023/10/21 11:22:44;;;;;;;3.83;0.80;;;15.30;99.90;;;;;;5053838;28;20222;-53
2023/10/21 11:25:09;;;;;;;1.77;0.52;;;15.20;99.90;;;;;;5053627;28;20822;-52
2023/10/21 11:27:39;;;;;;;0.70;0.45;;;15.20;99.90;;;;;;5055406;28;20393;-37
2023/10/21 11:30:10;;;;;;;3.55;0.80;;;15.40;99.90;;;;;;5054932;28;20020;-38
2023/10/21 11:32:39;;;;;;;1.20;0.50;;;15.50;99.90;;;;;;5054692;28;20035;-37
2023/10/21 11:35:09;;;;;;;7.03;0.40;;;15.60;99.90;;;;;;5054829;28;20017;-41
2023/10/21 11:37:36;;;;;;;0.60;0.40;;;15.70;99.90;;;;;;5054888;28;20500;-39
2023/10/21 11:40:02;;;;;;;2.47;0.55;;;15.60;99.90;;;;;;5054714;28;20021;-38
2023/10/21 11:42:28;;;;;;;3.47;0.82;;;15.60;99.90;;;;;;5054636;28;20390;-39
2023/10/21 11:44:59;;;;;;;4.05;0.75;;;15.60;99.90;;;;;;5065147;28;20044;-39
2023/10/21 11:47:29;;;;;;;3.67;0.85;;;15.60;99.90;;;;;;5074674;28;20036;-39
2023/10/21 11:49:56;;;;;;;1.92;0.40;;;15.60;99.90;;;;;;5074029;28;20021;-37
2023/10/21 11:52:22;;;;;;;6.72;0.75;;;15.40;99.90;;;;;;5055570;28;20033;-38
2023/10/21 11:57:51;;;;;;;2.50;0.88;;;15.40;99.90;;;;;;5073550;28;20052;-40
2023/10/21 12:27:47;;;;;;;5.68;0.82;;;15.60;99.90;;;;;;5071024;28;20068;-40
2023/10/21 12:42:56;;;;;;;6.00;0.80;;;16.10;99.90;;;;;;5073625;28;20037;-47
2023/10/21 12:45:39;;;;;;;5.57;0.80;;;16.10;99.90;;;;;;5072908;28;20044;-49
2023/10/21 12:48:08;;;;;;;3.05;0.80;;;16.10;99.90;;;;;;5073594;28;20025;-50
2023/10/21 12:50:34;;;;;;;6.75;1.00;;;16.10;99.90;;;;;;5073493;28;20512;-46
2023/10/21 12:53:01;;;;;;;3.55;1.08;;;16.00;99.90;;;;;;5073060;28;20100;-41
2023/10/21 12:55:26;;;;;;;5.45;1.30;;;15.90;99.90;;;;;;5073089;28;20032;-43
2023/10/21 12:57:53;;;;;;;7.93;0.98;;;15.90;99.90;;;;;;5071948;28;20024;-42
2023/10/21 13:00:20;;;;;;;2.63;0.60;;;15.80;99.90;;;;;;5072642;28;20032;-43
2023/10/21 13:02:46;;;;;;;5.50;1.45;;;15.70;99.90;;;;;;5072739;28;20033;-44
2023/10/21 13:05:13;;;;;;;4.32;0.75;;;15.80;99.90;;;;;;5054568;28;20182;-47
2023/10/21 13:07:39;;;;;;;2.20;0.77;;;15.70;99.90;;;;;;5072628;28;20393;-47
2023/10/21 13:10:09;;;;;;;4.85;1.20;;;15.70;99.90;;;;;;5062094;28;20029;-49
2023/10/21 13:12:36;;;;;;;7.75;1.13;;;15.70;99.90;;;;;;5072705;28;20082;-50
2023/10/21 13:15:03;;;;;;;9.63;1.48;;;15.70;99.90;;;;;;5071553;28;20032;-48
2023/10/21 13:17:29;;;;;;;;;;;15.60;99.90;;;;;;5065252;28;20036;-46
2023/10/21 13:19:55;;;;;;;4.10;0.90;;;15.60;99.90;;;;;;5071585;28;19993;-49
2023/10/21 13:22:21;;;;;;;5.22;0.95;;;15.50;99.90;;;;;;5072589;28;20499;-46
2023/10/21 13:24:48;;;;;;;14.43;1.13;;;15.50;99.90;;;;;;5068991;28;20072;-47
2023/10/21 13:27:14;;;;;;;7.53;1.27;;;15.50;99.90;;;;;;5069856;28;20033;-43
2023/10/21 13:29:40;;;;;;;6.43;1.08;;;15.50;99.90;;;;;;5072881;28;20032;-49